createdAt,value
2022-12-20T00:01:19.133Z,53.26
2022-12-20T00:03:45.810Z,52.93
2022-12-20T00:06:13.274Z,53.02
2022-12-20T00:08:40.614Z,52.78
2022-12-20T00:11:08.748Z,53.10
2022-12-20T00:13:35.984Z,52.81
2022-12-20T00:16:14.566Z,52.56
2022-12-20T00:18:42.321Z,53.20
2022-12-20T00:21:11.565Z,52.72
2022-12-20T00:23:39.458Z,52.97
2022-12-20T00:26:07.584Z,52.46
2022-12-20T00:28:35.923Z,52.02
2022-12-20T00:31:04.565Z,52.22
2022-12-20T00:33:32.260Z,53.56
2022-12-20T00:35:58.903Z,52.65
2022-12-20T00:38:25.809Z,52.58
2022-12-20T00:41:08.947Z,53.32
2022-12-20T00:43:36.576Z,52.81
2022-12-20T00:46:04.428Z,52.46
2022-12-20T00:48:32.091Z,52.40
2022-12-20T00:51:00.481Z,51.13
2022-12-20T00:53:27.741Z,51.46
2022-12-20T00:55:54.672Z,50.96
2022-12-20T00:58:21.492Z,50.75
2022-12-20T01:00:54.076Z,50.51
2022-12-20T01:03:23.236Z,50.96
2022-12-20T01:06:08.004Z,50.84
2022-12-20T01:08:34.926Z,50.82
2022-12-20T01:11:03.714Z,50.60
2022-12-20T01:13:31.960Z,51.54
2022-12-20T01:16:14.953Z,49.79
2022-12-20T01:18:41.624Z,48.66
2022-12-20T01:21:11.113Z,46.94
2022-12-20T01:23:38.434Z,47.67
2022-12-20T01:26:06.791Z,47.36
2022-12-20T01:28:33.253Z,47.44
2022-12-20T01:30:59.706Z,45.89
2022-12-20T01:33:26.157Z,46.27
2022-12-20T01:36:00.886Z,46.09
2022-12-20T01:38:28.314Z,45.53
2022-12-20T01:40:55.762Z,44.95
2022-12-20T01:43:22.623Z,44.71
2022-12-20T01:45:49.667Z,45.39
2022-12-20T01:48:22.971Z,45.02
2022-12-20T01:50:51.991Z,46.54
2022-12-20T01:53:22.945Z,47.08
2022-12-20T01:55:49.912Z,47.54
2022-12-20T01:58:19.614Z,47.79
2022-12-20T02:00:46.591Z,47.56
2022-12-20T02:03:15.139Z,48.35
2022-12-20T02:05:44.685Z,47.70
2022-12-20T02:08:14.980Z,48.40
2022-12-20T02:11:00.131Z,48.06
2022-12-20T02:13:50.940Z,47.93
2022-12-20T02:16:26.415Z,48.67
2022-12-20T02:19:10.709Z,48.76
2022-12-20T02:21:46.845Z,48.61
2022-12-20T02:24:48.540Z,48.78
2022-12-20T02:27:49.399Z,48.94
2022-12-20T02:30:19.856Z,49.20
2022-12-20T02:32:58.359Z,50.01
2022-12-20T02:35:28.969Z,49.31
2022-12-20T02:37:59.497Z,50.23
2022-12-20T02:40:34.628Z,50.47
2022-12-20T02:43:05.285Z,50.86
2022-12-20T02:45:37.232Z,51.23
2022-12-20T02:48:10.310Z,51.07
2022-12-20T02:50:45.941Z,51.47
2022-12-20T02:53:13.882Z,51.56
2022-12-20T02:55:57.228Z,51.57
2022-12-20T02:58:39.141Z,51.23
2022-12-20T03:01:15.001Z,51.79
2022-12-20T03:03:41.656Z,51.43
2022-12-20T03:06:08.396Z,51.45
2022-12-20T03:08:34.880Z,51.52
2022-12-20T03:11:01.359Z,51.19
2022-12-20T03:13:27.877Z,51.86
2022-12-20T03:15:54.370Z,52.03
2022-12-20T03:18:21.049Z,51.87
2022-12-20T03:20:47.565Z,51.95
2022-12-20T03:23:14.053Z,52.20
2022-12-20T03:25:40.623Z,52.43
2022-12-20T03:28:07.073Z,52.40
2022-12-20T03:30:33.634Z,52.67
2022-12-20T03:33:00.171Z,53.25
2022-12-20T03:35:26.659Z,52.73
2022-12-20T03:37:53.730Z,54.02
2022-12-20T03:40:20.181Z,53.64
2022-12-20T03:42:46.676Z,53.42
2022-12-20T03:45:14.060Z,54.04
2022-12-20T03:47:40.521Z,55.38
2022-12-20T03:50:07.836Z,54.69
2022-12-20T03:52:34.732Z,54.84
2022-12-20T03:55:01.235Z,54.42
2022-12-20T03:57:27.700Z,54.02
2022-12-20T03:59:54.152Z,54.62
2022-12-20T04:02:20.804Z,54.75
2022-12-20T04:04:47.459Z,55.29
2022-12-20T04:07:14.011Z,55.42
2022-12-20T04:09:40.524Z,55.31
2022-12-20T04:12:07.427Z,55.05
2022-12-20T04:14:53.945Z,54.98
2022-12-20T04:17:30.140Z,55.29
2022-12-20T04:20:02.536Z,55.36
2022-12-20T04:22:29.013Z,55.32
2022-12-20T04:24:55.488Z,55.33
2022-12-20T04:27:21.997Z,55.76
2022-12-20T04:29:48.533Z,55.28
2022-12-20T04:32:15.049Z,56.21
2022-12-20T04:34:41.551Z,55.87
2022-12-20T04:37:08.000Z,56.24
2022-12-20T04:39:34.475Z,56.38
2022-12-20T04:42:00.946Z,56.58
2022-12-20T04:44:27.392Z,56.48
2022-12-20T04:46:53.865Z,56.33
2022-12-20T04:49:20.511Z,55.94
2022-12-20T04:51:46.992Z,56.28
2022-12-20T04:54:13.472Z,56.59
2022-12-20T04:56:39.950Z,56.39
2022-12-20T04:59:06.431Z,56.75
2022-12-20T05:01:33.045Z,57.16
2022-12-20T05:03:59.558Z,57.06
2022-12-20T05:06:26.071Z,58.48
2022-12-20T05:08:52.563Z,57.48
2022-12-20T05:11:19.028Z,57.43
2022-12-20T05:13:45.509Z,57.07
2022-12-20T05:16:12.040Z,57.42
2022-12-20T05:18:43.003Z,56.91
2022-12-20T05:21:13.101Z,57.02
2022-12-20T05:23:39.659Z,56.45
2022-12-20T05:26:08.991Z,55.85
2022-12-20T05:28:36.283Z,56.84
2022-12-20T05:31:03.257Z,56.39
2022-12-20T05:33:34.001Z,55.83
2022-12-20T05:36:01.038Z,55.28
2022-12-20T05:38:27.807Z,55.47
2022-12-20T05:40:54.275Z,55.27
2022-12-20T05:43:20.889Z,54.87
2022-12-20T05:45:49.635Z,55.19
2022-12-20T05:48:17.880Z,54.85
2022-12-20T05:50:45.274Z,55.17
2022-12-20T05:53:16.511Z,54.76
2022-12-20T05:55:49.500Z,55.26
2022-12-20T05:58:16.924Z,54.58
2022-12-20T06:00:45.226Z,55.44
2022-12-20T06:03:12.267Z,54.87
2022-12-20T06:05:39.465Z,54.65
2022-12-20T06:08:07.355Z,53.99
2022-12-20T06:10:34.732Z,53.91
2022-12-20T06:13:02.463Z,53.92
2022-12-20T06:15:29.686Z,53.51
2022-12-20T06:17:56.330Z,54.11
2022-12-20T06:20:23.015Z,53.68
2022-12-20T06:22:49.461Z,53.24
2022-12-20T06:25:16.556Z,53.37
2022-12-20T06:27:43.167Z,53.48
2022-12-20T06:30:10.965Z,54.28
2022-12-20T06:32:37.511Z,53.67
2022-12-20T06:35:04.919Z,55.04
2022-12-20T06:37:31.596Z,54.29
2022-12-20T06:39:58.080Z,53.80
2022-12-20T06:42:24.560Z,53.69
2022-12-20T06:44:51.126Z,53.14
2022-12-20T06:47:17.606Z,53.38
2022-12-20T06:49:44.102Z,52.45
2022-12-20T06:52:10.577Z,51.92
2022-12-20T06:54:37.034Z,52.59
2022-12-20T06:57:03.554Z,52.32
2022-12-20T06:59:30.023Z,52.86
2022-12-20T07:01:56.835Z,54.11
2022-12-20T07:04:23.456Z,52.94
2022-12-20T07:06:49.955Z,53.06
2022-12-20T07:09:17.017Z,53.02
2022-12-20T07:11:43.503Z,53.46
2022-12-20T07:14:10.261Z,53.05
2022-12-20T07:16:37.402Z,53.14
2022-12-20T07:19:04.757Z,52.93
2022-12-20T07:21:31.316Z,52.04
2022-12-20T07:23:57.906Z,52.82
2022-12-20T07:26:24.395Z,52.64
2022-12-20T07:28:51.403Z,52.22
2022-12-20T07:31:17.964Z,52.77
2022-12-20T07:33:44.707Z,52.96
2022-12-20T07:36:14.281Z,53.38
2022-12-20T07:38:40.739Z,54.01
2022-12-20T07:41:16.098Z,52.92
2022-12-20T07:43:43.247Z,52.50
2022-12-20T07:46:15.065Z,52.42
2022-12-20T07:48:41.912Z,51.77
2022-12-20T07:51:29.161Z,51.42
2022-12-20T07:54:09.623Z,51.10
2022-12-20T07:56:42.556Z,49.98
2022-12-20T07:59:14.156Z,49.90
2022-12-20T08:01:43.868Z,50.29
2022-12-20T08:04:18.348Z,49.05
2022-12-20T08:06:44.912Z,48.90
2022-12-20T08:09:14.501Z,48.01
2022-12-20T08:11:46.447Z,48.78
2022-12-20T08:14:13.560Z,48.18
2022-12-20T08:16:40.088Z,48.68
2022-12-20T08:19:06.846Z,49.37
2022-12-20T08:21:33.299Z,49.82
2022-12-20T08:23:59.769Z,49.19
2022-12-20T08:26:26.352Z,49.61
2022-12-20T08:28:53.772Z,48.63
2022-12-20T08:31:20.350Z,49.04
2022-12-20T08:33:46.842Z,48.02
2022-12-20T08:36:14.311Z,48.15
2022-12-20T08:38:41.523Z,47.66
2022-12-20T08:41:12.856Z,47.84
2022-12-20T08:43:40.800Z,48.03
2022-12-20T08:46:08.519Z,48.16
2022-12-20T08:48:35.104Z,48.08
2022-12-20T08:51:04.949Z,47.75
2022-12-20T08:53:32.736Z,47.03
2022-12-20T08:56:12.145Z,46.56
2022-12-20T08:58:40.192Z,46.75
2022-12-20T09:01:10.080Z,45.89
2022-12-20T09:03:37.176Z,46.53
2022-12-20T09:06:08.862Z,45.24
2022-12-20T09:08:36.483Z,44.69
2022-12-20T09:11:11.692Z,44.91
2022-12-20T09:13:43.650Z,44.05
2022-12-20T09:16:16.628Z,43.16
2022-12-20T09:18:44.083Z,43.51
2022-12-20T09:21:11.278Z,43.24
2022-12-20T09:23:38.448Z,43.11
2022-12-20T09:26:08.180Z,44.30
2022-12-20T09:28:35.196Z,43.66
2022-12-20T09:31:04.467Z,43.40
2022-12-20T09:33:32.466Z,43.34
2022-12-20T09:36:00.503Z,42.85
2022-12-20T09:38:28.380Z,42.27
2022-12-20T09:41:02.909Z,41.69
2022-12-20T09:43:31.582Z,42.15
2022-12-20T09:46:01.729Z,42.24
2022-12-20T09:48:38.827Z,42.80
2022-12-20T09:51:14.483Z,42.45
2022-12-20T09:53:47.023Z,41.64
2022-12-20T09:56:21.628Z,41.44
2022-12-20T09:58:59.491Z,41.10
2022-12-20T10:01:36.203Z,42.19
2022-12-20T10:04:21.315Z,42.16
2022-12-20T10:07:03.610Z,42.96
2022-12-20T10:09:49.550Z,41.90
2022-12-20T10:12:48.104Z,41.37
2022-12-20T10:15:24.958Z,41.42
2022-12-20T10:18:31.380Z,40.87
2022-12-20T10:21:15.539Z,40.45
2022-12-20T10:24:02.347Z,40.47
2022-12-20T10:26:30.132Z,39.74
2022-12-20T10:28:56.681Z,40.94
2022-12-20T10:31:23.719Z,40.75
2022-12-20T10:33:50.247Z,40.73
2022-12-20T10:36:27.946Z,40.78
2022-12-20T10:38:57.421Z,40.99
2022-12-20T10:41:27.355Z,41.89
2022-12-20T10:44:11.055Z,42.14
2022-12-20T10:46:46.272Z,41.95
2022-12-20T10:49:21.565Z,41.49
2022-12-20T10:51:53.054Z,41.63
2022-12-20T10:54:44.091Z,42.23
2022-12-20T10:57:19.700Z,41.62
2022-12-20T10:59:52.745Z,42.03
2022-12-20T11:02:40.724Z,41.97
2022-12-20T11:05:11.456Z,41.57
2022-12-20T11:08:33.683Z,41.76
2022-12-20T11:10:39.911Z,41.54
2022-12-20T11:13:06.827Z,41.21
2022-12-20T11:15:35.988Z,41.46
2022-12-20T11:18:13.806Z,41.11
2022-12-20T11:21:28.025Z,41.52
2022-12-20T11:24:12.332Z,41.70
2022-12-20T11:27:09.323Z,42.34
2022-12-20T11:30:00.184Z,42.69
2022-12-20T11:32:51.613Z,42.36
2022-12-20T11:35:55.417Z,41.30
2022-12-20T11:38:46.326Z,41.05
2022-12-20T11:41:29.540Z,40.90
2022-12-20T11:47:14.446Z,40.90
2022-12-20T11:49:49.673Z,40.81
2022-12-20T11:52:36.942Z,41.10
2022-12-20T11:55:18.332Z,40.58
2022-12-20T11:58:20.695Z,40.53
2022-12-20T12:01:06.988Z,40.87
2022-12-20T12:03:39.447Z,40.91
2022-12-20T12:06:23.186Z,40.74
2022-12-20T12:09:08.811Z,40.80
2022-12-20T12:12:06.641Z,40.87
2022-12-20T12:14:44.986Z,39.77
2022-12-20T12:17:28.613Z,40.28
2022-12-20T12:20:02.025Z,40.21
2022-12-20T12:22:35.721Z,39.94
2022-12-20T12:25:11.126Z,39.72
2022-12-20T12:27:38.648Z,39.59
2022-12-20T12:30:06.774Z,39.51
2022-12-20T12:32:39.231Z,39.54
2022-12-20T12:35:14.732Z,39.09
2022-12-20T12:37:50.304Z,40.24
2022-12-20T12:40:57.024Z,39.52
2022-12-20T12:43:50.456Z,39.61
2022-12-20T12:46:25.061Z,39.39
2022-12-20T12:49:17.355Z,39.83
2022-12-20T12:51:51.511Z,43.17
2022-12-20T12:54:24.456Z,43.07
2022-12-20T12:56:52.928Z,44.52
2022-12-20T12:59:24.352Z,43.60
2022-12-20T13:02:16.216Z,43.78
2022-12-20T13:05:07.920Z,43.12
2022-12-20T13:07:36.324Z,43.20
2022-12-20T13:10:08.871Z,43.12
2022-12-20T13:12:38.370Z,43.40
2022-12-20T13:15:20.064Z,42.95
2022-12-20T13:17:50.637Z,43.05
2022-12-20T13:20:21.035Z,43.95
2022-12-20T13:23:09.722Z,43.48
2022-12-20T13:25:39.637Z,42.53
2022-12-20T13:28:24.100Z,42.01
2022-12-20T13:30:53.659Z,41.55
2022-12-20T13:33:39.411Z,40.62
2022-12-20T13:36:12.063Z,40.16
2022-12-20T13:38:38.473Z,40.00
2022-12-20T13:41:37.965Z,40.18
2022-12-20T13:44:16.572Z,39.65
2022-12-20T13:47:07.368Z,40.04
2022-12-20T13:49:41.028Z,39.47
2022-12-20T13:52:33.927Z,39.68
2022-12-20T13:55:15.769Z,39.04
2022-12-20T13:57:45.017Z,39.03
2022-12-20T14:00:18.846Z,39.93
2022-12-20T14:02:46.464Z,39.86
2022-12-20T14:05:19.572Z,39.85
2022-12-20T14:07:55.364Z,40.21
2022-12-20T14:10:26.647Z,39.89
2022-12-20T14:12:54.051Z,39.02
2022-12-20T14:15:23.536Z,38.77
2022-12-20T14:17:50.041Z,38.54
2022-12-20T14:20:22.252Z,38.34
2022-12-20T14:23:15.266Z,38.21
2022-12-20T14:26:00.067Z,38.26
2022-12-20T14:28:33.257Z,38.91
2022-12-20T14:31:01.462Z,38.29
2022-12-20T14:33:33.782Z,38.42
2022-12-20T14:36:18.206Z,39.37
2022-12-20T14:38:47.602Z,39.85
2022-12-20T14:41:30.659Z,39.42
2022-12-20T14:44:03.162Z,38.72
2022-12-20T14:46:31.221Z,38.08
2022-12-20T14:49:24.903Z,38.44
2022-12-20T14:52:04.336Z,39.17
2022-12-20T14:55:06.306Z,39.23
2022-12-20T14:57:24.746Z,40.18
2022-12-20T15:00:15.460Z,40.08
2022-12-20T15:02:50.819Z,39.29
2022-12-20T15:05:35.724Z,39.71
2022-12-20T15:08:18.203Z,41.06
2022-12-20T15:10:53.068Z,41.25
2022-12-20T15:13:22.918Z,41.46
2022-12-20T15:15:49.525Z,41.71
2022-12-20T15:18:19.660Z,41.37
2022-12-20T15:20:54.534Z,40.98
2022-12-20T15:23:22.639Z,40.57
2022-12-20T15:25:49.230Z,40.84
2022-12-20T15:28:19.823Z,40.61
2022-12-20T15:30:48.327Z,40.50
2022-12-20T15:33:35.145Z,40.59
2022-12-20T15:36:01.611Z,42.50
2022-12-20T15:39:03.201Z,42.02
2022-12-20T15:41:23.591Z,41.46
2022-12-20T15:43:57.265Z,42.28
2022-12-20T15:46:23.806Z,41.72
2022-12-20T15:48:50.301Z,42.72
2022-12-20T15:51:35.359Z,42.43
2022-12-20T15:54:05.229Z,41.64
2022-12-20T15:56:31.711Z,42.00
2022-12-20T15:58:58.305Z,42.25
2022-12-20T16:01:40.402Z,41.57
2022-12-20T16:04:14.356Z,41.39
2022-12-20T16:06:40.901Z,42.43
2022-12-20T16:09:07.396Z,41.84
2022-12-20T16:11:33.942Z,42.42
2022-12-20T16:14:00.412Z,42.01
2022-12-20T16:16:33.361Z,42.61
2022-12-20T16:19:01.070Z,42.68
2022-12-20T16:21:32.709Z,42.54
2022-12-20T16:23:59.351Z,42.54
2022-12-20T16:26:26.953Z,42.01
2022-12-20T16:28:55.700Z,43.62
2022-12-20T16:31:29.565Z,43.05
2022-12-20T16:33:58.424Z,43.71
2022-12-20T16:36:25.387Z,42.89
2022-12-20T16:38:53.094Z,43.17
2022-12-20T16:41:22.296Z,43.67
2022-12-20T16:43:49.352Z,42.73
2022-12-20T16:46:20.639Z,43.76
2022-12-20T16:48:47.499Z,43.86
2022-12-20T16:51:29.708Z,44.13
2022-12-20T16:54:18.559Z,44.16
2022-12-20T16:56:47.047Z,44.36
2022-12-20T16:59:19.925Z,45.19
2022-12-20T17:01:50.703Z,43.89
2022-12-20T17:04:18.969Z,44.25
2022-12-20T17:06:45.896Z,43.96
2022-12-20T17:11:56.440Z,44.71
2022-12-20T17:14:22.957Z,44.21
2022-12-20T17:16:49.534Z,44.58
2022-12-20T17:19:16.426Z,45.48
2022-12-20T17:24:33.705Z,45.56
2022-12-20T17:27:00.416Z,45.42
2022-12-20T17:29:27.088Z,45.02
2022-12-20T17:31:53.786Z,45.65
2022-12-20T17:34:23.779Z,46.08
2022-12-20T17:36:53.044Z,46.96
2022-12-20T17:39:20.328Z,46.88
2022-12-20T17:41:47.350Z,46.99
2022-12-20T17:44:25.455Z,46.42
2022-12-20T17:46:53.157Z,45.64
2022-12-20T17:49:20.183Z,46.17
2022-12-20T17:51:46.980Z,46.53
2022-12-20T17:54:20.060Z,45.66
2022-12-20T17:56:47.044Z,45.36
2022-12-20T17:59:14.163Z,44.71
2022-12-20T18:01:42.432Z,45.33
2022-12-20T18:04:12.065Z,45.64
2022-12-20T18:06:40.933Z,45.67
2022-12-20T18:09:13.744Z,45.72
2022-12-20T18:11:40.245Z,45.23
2022-12-20T18:14:06.725Z,45.87
2022-12-20T18:16:33.938Z,46.81
2022-12-20T18:19:01.702Z,45.80
2022-12-20T18:21:28.328Z,45.66
2022-12-20T18:23:55.287Z,45.18
2022-12-20T18:26:25.692Z,44.30
2022-12-20T18:28:59.049Z,45.09
2022-12-20T18:31:28.551Z,44.35
2022-12-20T18:33:58.375Z,44.09
2022-12-20T18:36:31.905Z,44.49
2022-12-20T18:38:59.937Z,43.20
2022-12-20T18:41:29.494Z,44.25
2022-12-20T18:44:05.676Z,43.83
2022-12-20T18:46:33.181Z,44.76
2022-12-20T18:49:01.609Z,44.51
2022-12-20T18:51:31.373Z,43.54
2022-12-20T18:53:59.583Z,43.60
2022-12-20T18:56:29.977Z,43.84
2022-12-20T18:58:57.344Z,43.42
2022-12-20T19:01:27.262Z,42.91
2022-12-20T19:03:54.933Z,42.62
2022-12-20T19:06:23.177Z,43.05
2022-12-20T19:08:50.332Z,43.41
2022-12-20T19:11:21.378Z,42.62
2022-12-20T19:13:47.840Z,42.92
2022-12-20T19:16:24.949Z,43.15
2022-12-20T19:18:51.494Z,42.98
2022-12-20T19:21:23.691Z,42.48
2022-12-20T19:23:53.336Z,42.81
2022-12-20T19:26:22.425Z,42.40
2022-12-20T19:28:49.491Z,41.95
2022-12-20T19:31:21.889Z,42.33
2022-12-20T19:33:50.293Z,41.71
2022-12-20T19:36:22.735Z,41.67
2022-12-20T19:38:52.134Z,42.04
2022-12-20T19:41:19.812Z,42.07
2022-12-20T19:43:47.763Z,42.48
2022-12-20T19:46:15.101Z,43.22
2022-12-20T19:48:42.040Z,43.17
2022-12-20T19:51:11.617Z,42.58
2022-12-20T19:53:40.043Z,42.17
2022-12-20T19:56:07.225Z,42.02
2022-12-20T19:58:33.836Z,43.43
2022-12-20T20:01:00.410Z,43.09
2022-12-20T20:03:27.155Z,43.05
2022-12-20T20:05:55.156Z,42.19
2022-12-20T20:08:21.693Z,42.41
2022-12-20T20:10:56.080Z,42.50
2022-12-20T20:13:23.461Z,42.44
2022-12-20T20:15:56.058Z,42.85
2022-12-20T20:18:24.156Z,42.10
2022-12-20T20:20:51.131Z,43.06
2022-12-20T20:23:17.629Z,43.49
2022-12-20T20:25:46.735Z,42.91
2022-12-20T20:28:13.365Z,43.41
2022-12-20T20:30:44.666Z,44.27
2022-12-20T20:33:11.287Z,43.60
2022-12-20T20:35:38.650Z,44.03
2022-12-20T20:38:06.514Z,44.01
2022-12-20T20:40:33.082Z,44.76
2022-12-20T20:43:00.344Z,45.78
2022-12-20T20:45:26.823Z,46.52
2022-12-20T20:47:53.293Z,46.92
2022-12-20T20:50:19.781Z,47.00
2022-12-20T20:52:46.341Z,46.79
2022-12-20T20:55:12.954Z,46.69
2022-12-20T20:57:39.425Z,47.11
2022-12-20T21:00:07.837Z,47.35
2022-12-20T21:02:34.557Z,47.69
2022-12-20T21:05:52.549Z,47.31
2022-12-20T21:07:47.635Z,47.79
2022-12-20T21:10:14.355Z,47.92
2022-12-20T21:12:40.990Z,47.08
2022-12-20T21:15:24.118Z,47.61
2022-12-20T21:17:51.208Z,47.28
2022-12-20T21:20:23.884Z,47.52
2022-12-20T21:22:52.789Z,47.36
2022-12-20T21:25:19.293Z,47.14
2022-12-20T21:27:45.799Z,46.97
2022-12-20T21:30:12.486Z,47.33
2022-12-20T21:32:38.953Z,46.83
2022-12-20T21:35:05.780Z,47.29
2022-12-20T21:37:32.650Z,47.41
2022-12-20T21:39:59.133Z,47.11
2022-12-20T21:42:25.678Z,46.70
2022-12-20T21:44:52.339Z,46.84
2022-12-20T21:47:19.173Z,46.49
2022-12-20T21:49:45.843Z,46.24
2022-12-20T21:52:12.309Z,46.43
2022-12-20T21:54:38.790Z,46.19
2022-12-20T21:57:05.403Z,46.62
2022-12-20T21:59:31.877Z,47.76
2022-12-20T22:01:58.701Z,46.90
2022-12-20T22:04:25.349Z,47.79
2022-12-20T22:06:51.840Z,47.90
2022-12-20T22:09:18.457Z,48.41
2022-12-20T22:11:47.165Z,47.66
2022-12-20T22:14:13.762Z,47.63
2022-12-20T22:16:40.616Z,47.11
2022-12-20T22:19:07.643Z,45.90
2022-12-20T22:21:35.302Z,46.05
2022-12-20T22:24:02.330Z,45.67
2022-12-20T22:26:31.729Z,45.66
2022-12-20T22:29:04.321Z,45.66
2022-12-20T22:31:31.532Z,46.04
2022-12-20T22:33:59.117Z,45.37
2022-12-20T22:36:26.352Z,45.82
2022-12-20T22:38:55.520Z,45.92
2022-12-20T22:41:31.066Z,47.21
2022-12-20T22:43:59.404Z,46.16
2022-12-20T22:46:26.665Z,47.49
2022-12-20T22:48:53.145Z,46.75
2022-12-20T22:51:23.871Z,47.50
2022-12-20T22:53:50.382Z,46.89
2022-12-20T22:56:18.560Z,46.56
2022-12-20T22:58:45.400Z,46.65
2022-12-20T23:01:14.532Z,48.08
2022-12-20T23:03:41.581Z,48.67
2022-12-20T23:06:12.414Z,48.09
2022-12-20T23:08:39.369Z,49.10
2022-12-20T23:11:15.024Z,50.76
2022-12-20T23:13:42.475Z,50.94
2022-12-20T23:16:09.063Z,50.14
2022-12-20T23:18:35.536Z,49.79
2022-12-20T23:21:02.008Z,50.51
2022-12-20T23:23:28.494Z,50.96
2022-12-20T23:25:55.011Z,50.96
2022-12-20T23:28:21.512Z,50.63
2022-12-20T23:30:47.973Z,50.80
2022-12-20T23:33:14.434Z,50.51
2022-12-20T23:35:40.894Z,49.86
2022-12-20T23:38:07.358Z,49.68
2022-12-20T23:40:33.809Z,50.27
2022-12-20T23:43:00.257Z,50.45
2022-12-20T23:45:26.719Z,49.97
2022-12-20T23:47:53.170Z,50.14
2022-12-20T23:50:19.683Z,50.41
2022-12-20T23:52:46.145Z,50.38
2022-12-20T23:55:12.768Z,49.62
2022-12-20T23:57:39.215Z,49.74
